Clarksville, New Hampshire
Current Conditions -  °F | °C
As of 5:00 AM on Saturday 22 Nov 2014 (Local Time) from CYSC Reporting Station
Broken Clouds Broken Clouds  
Wind Chill: 11°   Ceiling: 8500
Heat Index: 18°   Visibility: 9mi
Dew Point: 12°   Wind: 5mph
Humidity: 79%   Direction: 200°SSW
Pressure: 30.2"   Gusts: NA
Location:  45.1081°N, 71.25°W
Report Text: CYSC 221000Z AUTO 20004KT 170V250 9SM SCT045 BKN085 M08/M11 A3020 RMK SLP242
Loading
Personal Weather Stations






























Interactive Weather Map New forecast layout! Learn more

10-Day Weather Forecast

Advertisements
Track Severe Weather on mobile